sensor_id;sensor_type;location;lat;lon;timestamp;P1;durP1;ratioP1;P2;durP2;ratioP2
809;SDS011;387;48.772;9.186;2022-09-09T00:01:15;4.50;;;2.10;;
809;SDS011;387;48.772;9.186;2022-09-09T00:06:33;8.77;;;2.00;;
809;SDS011;387;48.772;9.186;2022-09-09T00:14:22;6.60;;;2.30;;
809;SDS011;387;48.772;9.186;2022-09-09T00:16:56;5.53;;;2.53;;
809;SDS011;387;48.772;9.186;2022-09-09T00:22:02;5.07;;;2.10;;
809;SDS011;387;48.772;9.186;2022-09-09T00:24:51;5.30;;;2.10;;
809;SDS011;387;48.772;9.186;2022-09-09T00:32:36;6.50;;;2.33;;
809;SDS011;387;48.772;9.186;2022-09-09T00:35:16;4.23;;;1.93;;
809;SDS011;387;48.772;9.186;2022-09-09T00:37:47;3.50;;;1.70;;
809;SDS011;387;48.772;9.186;2022-09-09T00:40:22;4.13;;;2.00;;
809;SDS011;387;48.772;9.186;2022-09-09T00:43:18;3.60;;;2.10;;
809;SDS011;387;48.772;9.186;2022-09-09T00:56:51;3.30;;;1.70;;
809;SDS011;387;48.772;9.186;2022-09-09T00:59:48;3.17;;;1.60;;
809;SDS011;387;48.772;9.186;2022-09-09T01:02:24;3.77;;;1.90;;
809;SDS011;387;48.772;9.186;2022-09-09T01:04:57;5.07;;;1.90;;
809;SDS011;387;48.772;9.186;2022-09-09T01:07:32;3.90;;;1.47;;
809;SDS011;387;48.772;9.186;2022-09-09T01:09:57;4.37;;;1.80;;
809;SDS011;387;48.772;9.186;2022-09-09T01:15:12;3.90;;;1.80;;
809;SDS011;387;48.772;9.186;2022-09-09T01:18:02;3.00;;;1.80;;
809;SDS011;387;48.772;9.186;2022-09-09T01:20:37;4.60;;;1.73;;
809;SDS011;387;48.772;9.186;2022-09-09T01:23:15;4.03;;;1.77;;
809;SDS011;387;48.772;9.186;2022-09-09T01:29:06;3.93;;;1.93;;
809;SDS011;387;48.772;9.186;2022-09-09T01:31:39;5.90;;;1.37;;
809;SDS011;387;48.772;9.186;2022-09-09T01:34:14;2.47;;;1.40;;
809;SDS011;387;48.772;9.186;2022-09-09T01:36:51;2.90;;;1.80;;
809;SDS011;387;48.772;9.186;2022-09-09T01:39:18;4.03;;;1.93;;
809;SDS011;387;48.772;9.186;2022-09-09T01:41:45;4.27;;;1.90;;
809;SDS011;387;48.772;9.186;2022-09-09T01:44:10;3.00;;;1.73;;
809;SDS011;387;48.772;9.186;2022-09-09T01:46:36;2.47;;;1.63;;
809;SDS011;387;48.772;9.186;2022-09-09T01:49:03;6.07;;;1.60;;
809;SDS011;387;48.772;9.186;2022-09-09T01:51:31;4.43;;;1.60;;
809;SDS011;387;48.772;9.186;2022-09-09T01:53:57;3.67;;;1.73;;
809;SDS011;387;48.772;9.186;2022-09-09T01:59:06;6.83;;;1.77;;
809;SDS011;387;48.772;9.186;2022-09-09T02:01:57;2.70;;;1.33;;
809;SDS011;387;48.772;9.186;2022-09-09T02:04:39;7.13;;;1.60;;
809;SDS011;387;48.772;9.186;2022-09-09T02:09:52;2.33;;;1.67;;
809;SDS011;387;48.772;9.186;2022-09-09T02:12:25;3.47;;;1.90;;
809;SDS011;387;48.772;9.186;2022-09-09T02:14:56;6.00;;;2.03;;
809;SDS011;387;48.772;9.186;2022-09-09T02:17:29;3.00;;;1.53;;
809;SDS011;387;48.772;9.186;2022-09-09T02:20:06;4.77;;;1.80;;
809;SDS011;387;48.772;9.186;2022-09-09T02:22:33;2.37;;;1.53;;
809;SDS011;387;48.772;9.186;2022-09-09T02:25:00;7.33;;;1.70;;
809;SDS011;387;48.772;9.186;2022-09-09T02:27:27;3.00;;;1.97;;
809;SDS011;387;48.772;9.186;2022-09-09T02:29:53;5.17;;;1.80;;
809;SDS011;387;48.772;9.186;2022-09-09T02:32:22;2.90;;;1.87;;
809;SDS011;387;48.772;9.186;2022-09-09T02:34:50;3.00;;;1.90;;
809;SDS011;387;48.772;9.186;2022-09-09T02:37:21;3.30;;;1.60;;
809;SDS011;387;48.772;9.186;2022-09-09T02:39:53;4.60;;;1.97;;
809;SDS011;387;48.772;9.186;2022-09-09T02:42:19;3.67;;;1.80;;
809;SDS011;387;48.772;9.186;2022-09-09T02:44:45;3.80;;;2.10;;
809;SDS011;387;48.772;9.186;2022-09-09T02:47:24;3.20;;;1.50;;
809;SDS011;387;48.772;9.186;2022-09-09T02:52:44;5.03;;;1.90;;
809;SDS011;387;48.772;9.186;2022-09-09T02:57:59;4.43;;;2.20;;
809;SDS011;387;48.772;9.186;2022-09-09T03:00:27;7.13;;;1.87;;
809;SDS011;387;48.772;9.186;2022-09-09T03:02:53;3.90;;;2.17;;
809;SDS011;387;48.772;9.186;2022-09-09T03:05:20;5.30;;;1.83;;
809;SDS011;387;48.772;9.186;2022-09-09T03:07:46;4.50;;;1.97;;
809;SDS011;387;48.772;9.186;2022-09-09T03:10:12;5.00;;;2.10;;
809;SDS011;387;48.772;9.186;2022-09-09T03:12:38;5.90;;;1.90;;
809;SDS011;387;48.772;9.186;2022-09-09T03:15:04;2.30;;;1.73;;
809;SDS011;387;48.772;9.186;2022-09-09T03:17:31;3.27;;;1.47;;
809;SDS011;387;48.772;9.186;2022-09-09T03:19:57;3.73;;;1.43;;
809;SDS011;387;48.772;9.186;2022-09-09T03:22:23;3.40;;;1.60;;
809;SDS011;387;48.772;9.186;2022-09-09T03:24:50;4.60;;;1.50;;
809;SDS011;387;48.772;9.186;2022-09-09T03:27:16;3.87;;;1.70;;
809;SDS011;387;48.772;9.186;2022-09-09T03:29:42;4.20;;;1.37;;
809;SDS011;387;48.772;9.186;2022-09-09T03:32:08;3.80;;;1.30;;
809;SDS011;387;48.772;9.186;2022-09-09T03:34:35;4.93;;;1.20;;
809;SDS011;387;48.772;9.186;2022-09-09T03:37:04;3.07;;;1.37;;
809;SDS011;387;48.772;9.186;2022-09-09T03:39:30;2.80;;;1.40;;
809;SDS011;387;48.772;9.186;2022-09-09T03:41:56;3.77;;;1.47;;
809;SDS011;387;48.772;9.186;2022-09-09T03:44:21;2.20;;;1.40;;
809;SDS011;387;48.772;9.186;2022-09-09T03:46:47;6.97;;;1.60;;
809;SDS011;387;48.772;9.186;2022-09-09T03:49:12;2.20;;;1.57;;
809;SDS011;387;48.772;9.186;2022-09-09T03:51:38;2.27;;;1.30;;
809;SDS011;387;48.772;9.186;2022-09-09T03:54:05;2.90;;;1.50;;
809;SDS011;387;48.772;9.186;2022-09-09T03:56:33;1.80;;;1.40;;
809;SDS011;387;48.772;9.186;2022-09-09T03:58:59;2.33;;;1.40;;
809;SDS011;387;48.772;9.186;2022-09-09T04:01:25;3.50;;;1.47;;
809;SDS011;387;48.772;9.186;2022-09-09T04:03:50;3.60;;;1.57;;
809;SDS011;387;48.772;9.186;2022-09-09T04:06:17;4.67;;;1.47;;
809;SDS011;387;48.772;9.186;2022-09-09T04:08:45;3.13;;;1.43;;
809;SDS011;387;48.772;9.186;2022-09-09T04:11:13;3.40;;;1.77;;
809;SDS011;387;48.772;9.186;2022-09-09T04:13:40;2.80;;;1.67;;
809;SDS011;387;48.772;9.186;2022-09-09T04:16:06;5.33;;;1.63;;
809;SDS011;387;48.772;9.186;2022-09-09T04:18:34;2.93;;;1.60;;
809;SDS011;387;48.772;9.186;2022-09-09T04:21:00;4.80;;;1.50;;
809;SDS011;387;48.772;9.186;2022-09-09T04:23:26;3.93;;;1.37;;
809;SDS011;387;48.772;9.186;2022-09-09T04:25:56;2.47;;;1.30;;
809;SDS011;387;48.772;9.186;2022-09-09T04:28:24;3.30;;;1.50;;
809;SDS011;387;48.772;9.186;2022-09-09T04:30:51;1.53;;;1.43;;
809;SDS011;387;48.772;9.186;2022-09-09T04:33:17;6.10;;;1.70;;
809;SDS011;387;48.772;9.186;2022-09-09T04:35:47;3.10;;;1.70;;
809;SDS011;387;48.772;9.186;2022-09-09T04:38:15;3.70;;;1.70;;
809;SDS011;387;48.772;9.186;2022-09-09T04:40:48;3.60;;;1.83;;
809;SDS011;387;48.772;9.186;2022-09-09T04:43:15;2.70;;;1.93;;
809;SDS011;387;48.772;9.186;2022-09-09T04:45:41;5.60;;;2.20;;
809;SDS011;387;48.772;9.186;2022-09-09T04:48:07;5.83;;;2.20;;
809;SDS011;387;48.772;9.186;2022-09-09T04:50:34;4.37;;;2.10;;
809;SDS011;387;48.772;9.186;2022-09-09T04:53:04;4.67;;;2.20;;
809;SDS011;387;48.772;9.186;2022-09-09T04:55:30;3.93;;;1.80;;
809;SDS011;387;48.772;9.186;2022-09-09T04:57:56;4.67;;;2.00;;
809;SDS011;387;48.772;9.186;2022-09-09T05:00:22;2.30;;;1.70;;
809;SDS011;387;48.772;9.186;2022-09-09T05:02:48;3.43;;;2.00;;
809;SDS011;387;48.772;9.186;2022-09-09T05:05:14;6.30;;;2.20;;
809;SDS011;387;48.772;9.186;2022-09-09T05:07:40;5.20;;;1.90;;
809;SDS011;387;48.772;9.186;2022-09-09T05:10:06;5.03;;;2.40;;
809;SDS011;387;48.772;9.186;2022-09-09T05:12:32;6.90;;;2.20;;
809;SDS011;387;48.772;9.186;2022-09-09T05:14:58;3.53;;;2.00;;
809;SDS011;387;48.772;9.186;2022-09-09T05:17:23;6.27;;;2.00;;
809;SDS011;387;48.772;9.186;2022-09-09T05:19:58;2.83;;;1.70;;
809;SDS011;387;48.772;9.186;2022-09-09T05:22:23;3.90;;;1.93;;
809;SDS011;387;48.772;9.186;2022-09-09T05:24:49;2.33;;;1.80;;
809;SDS011;387;48.772;9.186;2022-09-09T05:27:16;4.33;;;1.93;;
809;SDS011;387;48.772;9.186;2022-09-09T05:29:44;3.80;;;1.80;;
809;SDS011;387;48.772;9.186;2022-09-09T05:32:10;5.50;;;1.93;;
809;SDS011;387;48.772;9.186;2022-09-09T05:34:36;7.00;;;2.53;;
809;SDS011;387;48.772;9.186;2022-09-09T05:37:02;4.07;;;2.00;;
809;SDS011;387;48.772;9.186;2022-09-09T05:39:29;5.57;;;2.40;;
809;SDS011;387;48.772;9.186;2022-09-09T05:41:55;7.00;;;2.20;;
809;SDS011;387;48.772;9.186;2022-09-09T05:44:20;5.27;;;2.03;;
809;SDS011;387;48.772;9.186;2022-09-09T05:46:48;2.40;;;1.60;;
809;SDS011;387;48.772;9.186;2022-09-09T05:49:14;3.40;;;1.93;;
809;SDS011;387;48.772;9.186;2022-09-09T05:51:40;2.77;;;1.90;;
809;SDS011;387;48.772;9.186;2022-09-09T05:54:07;6.73;;;2.10;;
809;SDS011;387;48.772;9.186;2022-09-09T05:56:33;5.40;;;2.00;;
809;SDS011;387;48.772;9.186;2022-09-09T05:58:59;3.77;;;1.90;;
809;SDS011;387;48.772;9.186;2022-09-09T06:01:26;3.50;;;1.80;;
809;SDS011;387;48.772;9.186;2022-09-09T06:03:54;2.60;;;1.70;;
809;SDS011;387;48.772;9.186;2022-09-09T06:06:20;3.83;;;2.07;;
809;SDS011;387;48.772;9.186;2022-09-09T06:08:50;12.20;;;2.70;;
809;SDS011;387;48.772;9.186;2022-09-09T06:11:21;17.70;;;3.50;;
809;SDS011;387;48.772;9.186;2022-09-09T06:13:48;9.23;;;2.70;;
809;SDS011;387;48.772;9.186;2022-09-09T06:16:17;5.43;;;1.93;;
809;SDS011;387;48.772;9.186;2022-09-09T06:18:44;5.20;;;2.47;;
809;SDS011;387;48.772;9.186;2022-09-09T06:23:45;2.03;;;1.63;;
809;SDS011;387;48.772;9.186;2022-09-09T06:26:19;11.20;;;2.97;;
809;SDS011;387;48.772;9.186;2022-09-09T06:28:46;10.77;;;2.80;;
809;SDS011;387;48.772;9.186;2022-09-09T06:31:15;6.10;;;2.00;;
809;SDS011;387;48.772;9.186;2022-09-09T06:33:52;5.40;;;2.27;;
809;SDS011;387;48.772;9.186;2022-09-09T06:36:32;4.00;;;2.23;;
809;SDS011;387;48.772;9.186;2022-09-09T06:39:03;3.97;;;2.00;;
809;SDS011;387;48.772;9.186;2022-09-09T06:41:30;5.20;;;2.03;;
809;SDS011;387;48.772;9.186;2022-09-09T06:43:57;9.03;;;2.57;;
809;SDS011;387;48.772;9.186;2022-09-09T06:46:27;6.23;;;2.90;;
809;SDS011;387;48.772;9.186;2022-09-09T06:48:55;3.67;;;2.00;;
809;SDS011;387;48.772;9.186;2022-09-09T06:51:22;3.93;;;2.00;;
809;SDS011;387;48.772;9.186;2022-09-09T06:53:50;4.47;;;2.20;;
809;SDS011;387;48.772;9.186;2022-09-09T06:58:49;5.43;;;2.60;;
809;SDS011;387;48.772;9.186;2022-09-09T07:01:19;3.70;;;2.50;;
809;SDS011;387;48.772;9.186;2022-09-09T07:03:47;6.20;;;2.50;;
809;SDS011;387;48.772;9.186;2022-09-09T07:06:16;4.10;;;2.27;;
809;SDS011;387;48.772;9.186;2022-09-09T07:08:53;5.17;;;2.20;;
809;SDS011;387;48.772;9.186;2022-09-09T07:11:21;14.53;;;2.90;;
809;SDS011;387;48.772;9.186;2022-09-09T07:13:48;9.40;;;2.83;;
809;SDS011;387;48.772;9.186;2022-09-09T07:16:17;3.77;;;2.03;;
809;SDS011;387;48.772;9.186;2022-09-09T07:18:44;6.50;;;1.90;;
809;SDS011;387;48.772;9.186;2022-09-09T07:21:10;10.50;;;2.20;;
809;SDS011;387;48.772;9.186;2022-09-09T07:23:37;7.97;;;2.80;;
809;SDS011;387;48.772;9.186;2022-09-09T07:28:35;3.40;;;2.40;;
809;SDS011;387;48.772;9.186;2022-09-09T07:31:01;3.63;;;2.27;;
809;SDS011;387;48.772;9.186;2022-09-09T07:33:28;4.80;;;2.03;;
809;SDS011;387;48.772;9.186;2022-09-09T07:36:02;5.70;;;1.73;;
809;SDS011;387;48.772;9.186;2022-09-09T07:38:29;5.50;;;2.07;;
809;SDS011;387;48.772;9.186;2022-09-09T07:41:02;3.93;;;2.00;;
809;SDS011;387;48.772;9.186;2022-09-09T07:43:39;2.53;;;1.60;;
809;SDS011;387;48.772;9.186;2022-09-09T07:46:10;7.20;;;2.00;;
809;SDS011;387;48.772;9.186;2022-09-09T07:48:37;5.37;;;1.90;;
809;SDS011;387;48.772;9.186;2022-09-09T07:51:15;3.60;;;2.00;;
809;SDS011;387;48.772;9.186;2022-09-09T07:53:42;3.83;;;1.73;;
809;SDS011;387;48.772;9.186;2022-09-09T07:56:09;6.53;;;2.33;;
809;SDS011;387;48.772;9.186;2022-09-09T07:58:38;4.93;;;2.23;;
809;SDS011;387;48.772;9.186;2022-09-09T08:01:08;2.33;;;1.60;;
809;SDS011;387;48.772;9.186;2022-09-09T08:03:35;3.43;;;1.80;;
809;SDS011;387;48.772;9.186;2022-09-09T08:06:02;5.97;;;2.63;;
809;SDS011;387;48.772;9.186;2022-09-09T08:08:29;7.10;;;2.87;;
809;SDS011;387;48.772;9.186;2022-09-09T08:11:29;5.00;;;1.90;;
809;SDS011;387;48.772;9.186;2022-09-09T08:13:49;2.73;;;1.80;;
809;SDS011;387;48.772;9.186;2022-09-09T08:16:20;3.10;;;1.40;;
809;SDS011;387;48.772;9.186;2022-09-09T08:18:51;3.97;;;1.60;;
809;SDS011;387;48.772;9.186;2022-09-09T08:21:19;2.90;;;1.67;;
809;SDS011;387;48.772;9.186;2022-09-09T08:23:47;3.80;;;1.50;;
809;SDS011;387;48.772;9.186;2022-09-09T08:26:15;3.40;;;2.20;;
809;SDS011;387;48.772;9.186;2022-09-09T08:28:46;4.27;;;1.67;;
809;SDS011;387;48.772;9.186;2022-09-09T08:31:15;5.17;;;2.53;;
809;SDS011;387;48.772;9.186;2022-09-09T08:33:46;4.40;;;2.20;;
809;SDS011;387;48.772;9.186;2022-09-09T08:36:13;2.27;;;1.57;;
809;SDS011;387;48.772;9.186;2022-09-09T08:38:46;3.83;;;1.33;;
809;SDS011;387;48.772;9.186;2022-09-09T08:41:35;5.63;;;2.10;;
809;SDS011;387;48.772;9.186;2022-09-09T08:51:50;2.30;;;1.60;;
809;SDS011;387;48.772;9.186;2022-09-09T08:54:18;6.33;;;2.00;;
809;SDS011;387;48.772;9.186;2022-09-09T08:56:44;6.90;;;1.60;;
809;SDS011;387;48.772;9.186;2022-09-09T08:59:09;2.97;;;1.37;;
809;SDS011;387;48.772;9.186;2022-09-09T09:12:46;32.20;;;4.17;;
809;SDS011;387;48.772;9.186;2022-09-09T09:15:16;9.00;;;1.87;;
809;SDS011;387;48.772;9.186;2022-09-09T09:17:46;12.77;;;2.90;;
809;SDS011;387;48.772;9.186;2022-09-09T09:20:12;6.10;;;1.77;;
809;SDS011;387;48.772;9.186;2022-09-09T09:22:45;6.67;;;2.13;;
809;SDS011;387;48.772;9.186;2022-09-09T09:28:03;6.97;;;1.90;;
809;SDS011;387;48.772;9.186;2022-09-09T09:30:48;3.17;;;1.73;;
809;SDS011;387;48.772;9.186;2022-09-09T09:33:25;3.23;;;1.70;;
809;SDS011;387;48.772;9.186;2022-09-09T09:35:52;3.47;;;1.63;;
809;SDS011;387;48.772;9.186;2022-09-09T09:40:48;2.47;;;1.13;;
809;SDS011;387;48.772;9.186;2022-09-09T09:43:18;3.00;;;1.60;;
809;SDS011;387;48.772;9.186;2022-09-09T09:45:48;1.60;;;1.20;;
809;SDS011;387;48.772;9.186;2022-09-09T09:48:14;7.03;;;1.20;;
809;SDS011;387;48.772;9.186;2022-09-09T09:50:46;5.43;;;1.70;;
809;SDS011;387;48.772;9.186;2022-09-09T09:53:22;4.70;;;1.20;;
809;SDS011;387;48.772;9.186;2022-09-09T09:56:06;2.67;;;1.20;;
809;SDS011;387;48.772;9.186;2022-09-09T09:58:33;2.13;;;1.30;;
809;SDS011;387;48.772;9.186;2022-09-09T10:01:18;2.20;;;1.80;;
809;SDS011;387;48.772;9.186;2022-09-09T10:04:02;3.17;;;1.40;;
809;SDS011;387;48.772;9.186;2022-09-09T10:06:41;5.17;;;1.03;;
809;SDS011;387;48.772;9.186;2022-09-09T10:09:26;2.93;;;1.40;;
809;SDS011;387;48.772;9.186;2022-09-09T10:17:46;4.53;;;1.30;;
809;SDS011;387;48.772;9.186;2022-09-09T10:20:35;3.90;;;1.87;;
809;SDS011;387;48.772;9.186;2022-09-09T10:28:46;8.47;;;2.00;;
809;SDS011;387;48.772;9.186;2022-09-09T10:31:24;3.73;;;1.63;;
809;SDS011;387;48.772;9.186;2022-09-09T10:37:22;3.30;;;1.63;;
809;SDS011;387;48.772;9.186;2022-09-09T10:43:09;2.50;;;1.60;;
809;SDS011;387;48.772;9.186;2022-09-09T10:45:40;2.43;;;1.60;;
809;SDS011;387;48.772;9.186;2022-09-09T10:48:31;3.63;;;1.67;;
809;SDS011;387;48.772;9.186;2022-09-09T10:54:13;4.97;;;2.20;;
809;SDS011;387;48.772;9.186;2022-09-09T10:57:00;4.27;;;2.20;;
809;SDS011;387;48.772;9.186;2022-09-09T10:59:40;3.53;;;2.03;;
809;SDS011;387;48.772;9.186;2022-09-09T11:02:12;6.23;;;1.83;;
809;SDS011;387;48.772;9.186;2022-09-09T11:05:10;2.20;;;1.63;;
809;SDS011;387;48.772;9.186;2022-09-09T11:07:51;4.30;;;1.70;;
809;SDS011;387;48.772;9.186;2022-09-09T11:13:15;4.63;;;2.00;;
809;SDS011;387;48.772;9.186;2022-09-09T11:15:49;3.90;;;1.87;;
809;SDS011;387;48.772;9.186;2022-09-09T11:18:22;4.13;;;1.30;;
809;SDS011;387;48.772;9.186;2022-09-09T11:20:49;7.73;;;2.43;;
809;SDS011;387;48.772;9.186;2022-09-09T11:23:22;5.17;;;2.00;;
809;SDS011;387;48.772;9.186;2022-09-09T11:25:54;4.90;;;1.53;;
809;SDS011;387;48.772;9.186;2022-09-09T11:36:21;3.67;;;1.87;;
809;SDS011;387;48.772;9.186;2022-09-09T11:39:02;2.67;;;1.40;;
809;SDS011;387;48.772;9.186;2022-09-09T11:41:38;3.00;;;1.40;;
809;SDS011;387;48.772;9.186;2022-09-09T11:44:11;8.00;;;1.37;;
809;SDS011;387;48.772;9.186;2022-09-09T11:46:41;5.97;;;1.33;;
809;SDS011;387;48.772;9.186;2022-09-09T11:52:41;2.70;;;1.30;;
809;SDS011;387;48.772;9.186;2022-09-09T11:55:59;2.33;;;0.90;;
809;SDS011;387;48.772;9.186;2022-09-09T11:58:05;2.77;;;1.20;;
809;SDS011;387;48.772;9.186;2022-09-09T12:00:38;4.77;;;1.10;;
809;SDS011;387;48.772;9.186;2022-09-09T12:03:51;1.10;;;0.70;;
809;SDS011;387;48.772;9.186;2022-09-09T12:06:08;3.73;;;1.00;;
809;SDS011;387;48.772;9.186;2022-09-09T12:08:39;4.20;;;0.97;;
809;SDS011;387;48.772;9.186;2022-09-09T12:11:08;1.80;;;0.97;;
809;SDS011;387;48.772;9.186;2022-09-09T12:13:33;1.00;;;0.67;;
809;SDS011;387;48.772;9.186;2022-09-09T12:16:00;2.70;;;0.70;;
809;SDS011;387;48.772;9.186;2022-09-09T12:18:37;2.23;;;0.80;;
809;SDS011;387;48.772;9.186;2022-09-09T12:23:52;1.90;;;0.83;;
809;SDS011;387;48.772;9.186;2022-09-09T12:26:41;2.07;;;1.07;;
809;SDS011;387;48.772;9.186;2022-09-09T12:32:10;1.47;;;0.93;;
809;SDS011;387;48.772;9.186;2022-09-09T12:34:40;2.77;;;0.93;;
809;SDS011;387;48.772;9.186;2022-09-09T12:40:01;1.80;;;1.10;;
809;SDS011;387;48.772;9.186;2022-09-09T12:42:30;1.67;;;1.00;;
809;SDS011;387;48.772;9.186;2022-09-09T12:45:00;1.57;;;0.90;;
809;SDS011;387;48.772;9.186;2022-09-09T12:47:37;1.63;;;0.90;;
809;SDS011;387;48.772;9.186;2022-09-09T12:50:19;2.37;;;1.20;;
809;SDS011;387;48.772;9.186;2022-09-09T12:52:48;4.23;;;1.10;;
809;SDS011;387;48.772;9.186;2022-09-09T12:55:18;3.63;;;1.00;;
809;SDS011;387;48.772;9.186;2022-09-09T12:57:50;3.60;;;1.13;;
809;SDS011;387;48.772;9.186;2022-09-09T13:00:20;1.10;;;0.90;;
809;SDS011;387;48.772;9.186;2022-09-09T13:05:19;4.33;;;1.17;;
809;SDS011;387;48.772;9.186;2022-09-09T13:07:49;2.70;;;1.10;;
809;SDS011;387;48.772;9.186;2022-09-09T13:10:20;2.20;;;0.90;;
809;SDS011;387;48.772;9.186;2022-09-09T13:12:49;3.50;;;1.20;;
809;SDS011;387;48.772;9.186;2022-09-09T13:15:19;5.57;;;1.20;;
809;SDS011;387;48.772;9.186;2022-09-09T13:17:55;5.47;;;1.33;;
809;SDS011;387;48.772;9.186;2022-09-09T13:20:26;2.63;;;1.20;;
809;SDS011;387;48.772;9.186;2022-09-09T13:22:53;3.30;;;1.10;;
809;SDS011;387;48.772;9.186;2022-09-09T13:25:24;4.37;;;1.80;;
809;SDS011;387;48.772;9.186;2022-09-09T13:28:02;4.10;;;1.10;;
809;SDS011;387;48.772;9.186;2022-09-09T13:30:30;1.90;;;1.10;;
809;SDS011;387;48.772;9.186;2022-09-09T13:33:04;4.63;;;1.10;;
809;SDS011;387;48.772;9.186;2022-09-09T13:35:56;3.07;;;1.13;;
809;SDS011;387;48.772;9.186;2022-09-09T13:38:24;1.77;;;1.07;;
809;SDS011;387;48.772;9.186;2022-09-09T13:43:43;1.93;;;1.53;;
809;SDS011;387;48.772;9.186;2022-09-09T13:46:22;1.57;;;0.87;;
809;SDS011;387;48.772;9.186;2022-09-09T13:51:37;1.50;;;1.03;;
809;SDS011;387;48.772;9.186;2022-09-09T13:54:06;1.40;;;1.00;;
809;SDS011;387;48.772;9.186;2022-09-09T13:56:34;3.30;;;1.10;;
809;SDS011;387;48.772;9.186;2022-09-09T13:59:00;1.90;;;0.90;;
809;SDS011;387;48.772;9.186;2022-09-09T14:01:27;2.50;;;1.10;;
809;SDS011;387;48.772;9.186;2022-09-09T14:03:53;5.60;;;1.20;;
809;SDS011;387;48.772;9.186;2022-09-09T14:06:19;1.50;;;1.20;;
809;SDS011;387;48.772;9.186;2022-09-09T14:08:47;2.27;;;1.20;;
809;SDS011;387;48.772;9.186;2022-09-09T14:11:14;5.50;;;1.70;;
809;SDS011;387;48.772;9.186;2022-09-09T14:13:39;3.70;;;0.93;;
809;SDS011;387;48.772;9.186;2022-09-09T14:16:05;3.80;;;1.33;;
809;SDS011;387;48.772;9.186;2022-09-09T14:18:31;2.63;;;0.80;;
809;SDS011;387;48.772;9.186;2022-09-09T14:20:57;2.53;;;1.10;;
809;SDS011;387;48.772;9.186;2022-09-09T14:23:23;1.50;;;0.70;;
809;SDS011;387;48.772;9.186;2022-09-09T14:25:49;2.40;;;1.00;;
809;SDS011;387;48.772;9.186;2022-09-09T14:28:15;2.83;;;1.20;;
809;SDS011;387;48.772;9.186;2022-09-09T14:30:42;2.60;;;0.90;;
809;SDS011;387;48.772;9.186;2022-09-09T14:33:10;5.43;;;0.90;;
809;SDS011;387;48.772;9.186;2022-09-09T14:35:37;2.07;;;1.10;;
809;SDS011;387;48.772;9.186;2022-09-09T14:38:04;4.53;;;1.23;;
809;SDS011;387;48.772;9.186;2022-09-09T14:40:30;1.13;;;0.70;;
809;SDS011;387;48.772;9.186;2022-09-09T14:42:56;3.53;;;0.90;;
809;SDS011;387;48.772;9.186;2022-09-09T14:45:25;2.13;;;1.00;;
809;SDS011;387;48.772;9.186;2022-09-09T14:47:51;1.73;;;0.77;;
809;SDS011;387;48.772;9.186;2022-09-09T14:50:18;3.20;;;1.10;;
809;SDS011;387;48.772;9.186;2022-09-09T14:52:44;1.73;;;0.83;;
809;SDS011;387;48.772;9.186;2022-09-09T14:55:10;1.40;;;1.00;;
809;SDS011;387;48.772;9.186;2022-09-09T14:57:36;2.53;;;0.97;;
809;SDS011;387;48.772;9.186;2022-09-09T15:00:04;1.40;;;0.80;;
809;SDS011;387;48.772;9.186;2022-09-09T15:02:31;2.10;;;0.90;;
809;SDS011;387;48.772;9.186;2022-09-09T15:04:57;1.70;;;1.03;;
809;SDS011;387;48.772;9.186;2022-09-09T15:07:23;3.47;;;1.40;;
809;SDS011;387;48.772;9.186;2022-09-09T15:09:50;1.20;;;0.80;;
809;SDS011;387;48.772;9.186;2022-09-09T15:12:15;2.63;;;0.93;;
809;SDS011;387;48.772;9.186;2022-09-09T15:14:43;1.10;;;0.80;;
809;SDS011;387;48.772;9.186;2022-09-09T15:17:09;1.50;;;0.93;;
809;SDS011;387;48.772;9.186;2022-09-09T15:19:35;2.20;;;0.93;;
809;SDS011;387;48.772;9.186;2022-09-09T15:22:01;2.33;;;1.03;;
809;SDS011;387;48.772;9.186;2022-09-09T15:24:28;2.17;;;1.00;;
809;SDS011;387;48.772;9.186;2022-09-09T15:26:53;2.43;;;1.20;;
809;SDS011;387;48.772;9.186;2022-09-09T15:29:19;2.50;;;1.13;;
809;SDS011;387;48.772;9.186;2022-09-09T15:31:44;2.40;;;1.00;;
809;SDS011;387;48.772;9.186;2022-09-09T15:34:11;2.10;;;0.90;;
809;SDS011;387;48.772;9.186;2022-09-09T15:36:44;1.83;;;1.10;;
809;SDS011;387;48.772;9.186;2022-09-09T15:39:11;1.50;;;1.03;;
809;SDS011;387;48.772;9.186;2022-09-09T15:41:40;3.20;;;1.40;;
809;SDS011;387;48.772;9.186;2022-09-09T15:44:06;3.03;;;1.00;;
809;SDS011;387;48.772;9.186;2022-09-09T15:46:37;2.23;;;1.27;;
809;SDS011;387;48.772;9.186;2022-09-09T15:49:14;1.70;;;1.00;;
809;SDS011;387;48.772;9.186;2022-09-09T15:51:54;3.20;;;1.37;;
809;SDS011;387;48.772;9.186;2022-09-09T15:54:22;1.20;;;1.03;;
809;SDS011;387;48.772;9.186;2022-09-09T15:56:53;6.20;;;1.60;;
809;SDS011;387;48.772;9.186;2022-09-09T15:59:21;4.07;;;1.33;;
809;SDS011;387;48.772;9.186;2022-09-09T16:01:50;2.13;;;1.20;;
809;SDS011;387;48.772;9.186;2022-09-09T16:04:16;2.30;;;1.30;;
809;SDS011;387;48.772;9.186;2022-09-09T16:06:48;2.50;;;1.10;;
809;SDS011;387;48.772;9.186;2022-09-09T16:09:15;2.37;;;1.10;;
809;SDS011;387;48.772;9.186;2022-09-09T16:11:40;3.40;;;1.13;;
809;SDS011;387;48.772;9.186;2022-09-09T16:14:06;1.93;;;1.00;;
809;SDS011;387;48.772;9.186;2022-09-09T16:16:32;1.67;;;1.00;;
809;SDS011;387;48.772;9.186;2022-09-09T16:18:59;4.00;;;1.07;;
809;SDS011;387;48.772;9.186;2022-09-09T16:21:28;2.93;;;0.90;;
809;SDS011;387;48.772;9.186;2022-09-09T16:23:56;3.13;;;1.13;;
809;SDS011;387;48.772;9.186;2022-09-09T16:26:27;2.83;;;1.00;;
809;SDS011;387;48.772;9.186;2022-09-09T16:28:55;1.67;;;1.00;;
809;SDS011;387;48.772;9.186;2022-09-09T16:31:22;2.40;;;0.90;;
809;SDS011;387;48.772;9.186;2022-09-09T16:33:48;3.83;;;1.23;;
809;SDS011;387;48.772;9.186;2022-09-09T16:36:16;2.33;;;1.10;;
809;SDS011;387;48.772;9.186;2022-09-09T16:38:56;2.37;;;1.13;;
809;SDS011;387;48.772;9.186;2022-09-09T16:41:26;4.93;;;2.40;;
809;SDS011;387;48.772;9.186;2022-09-09T16:43:54;9.73;;;3.80;;
809;SDS011;387;48.772;9.186;2022-09-09T16:46:21;6.03;;;2.30;;
809;SDS011;387;48.772;9.186;2022-09-09T16:48:47;7.07;;;1.80;;
809;SDS011;387;48.772;9.186;2022-09-09T16:51:21;1.83;;;1.30;;
809;SDS011;387;48.772;9.186;2022-09-09T16:53:49;2.23;;;1.03;;
809;SDS011;387;48.772;9.186;2022-09-09T16:56:16;2.77;;;1.00;;
809;SDS011;387;48.772;9.186;2022-09-09T16:58:44;1.70;;;1.00;;
809;SDS011;387;48.772;9.186;2022-09-09T17:01:20;2.40;;;1.00;;
809;SDS011;387;48.772;9.186;2022-09-09T17:03:53;1.10;;;0.60;;
809;SDS011;387;48.772;9.186;2022-09-09T17:06:20;1.10;;;0.70;;
809;SDS011;387;48.772;9.186;2022-09-09T17:08:46;2.50;;;0.70;;
809;SDS011;387;48.772;9.186;2022-09-09T17:11:17;1.00;;;0.67;;
809;SDS011;387;48.772;9.186;2022-09-09T17:13:44;2.70;;;0.67;;
809;SDS011;387;48.772;9.186;2022-09-09T17:16:11;1.20;;;0.70;;
809;SDS011;387;48.772;9.186;2022-09-09T17:18:38;1.40;;;0.90;;
809;SDS011;387;48.772;9.186;2022-09-09T17:21:05;1.20;;;0.90;;
809;SDS011;387;48.772;9.186;2022-09-09T17:23:38;1.27;;;0.80;;
809;SDS011;387;48.772;9.186;2022-09-09T17:26:08;1.30;;;0.80;;
809;SDS011;387;48.772;9.186;2022-09-09T17:28:36;2.00;;;1.10;;
809;SDS011;387;48.772;9.186;2022-09-09T17:31:03;1.43;;;0.90;;
809;SDS011;387;48.772;9.186;2022-09-09T17:33:32;1.20;;;1.00;;
809;SDS011;387;48.772;9.186;2022-09-09T17:36:00;4.43;;;1.00;;
809;SDS011;387;48.772;9.186;2022-09-09T17:38:28;1.00;;;0.70;;
809;SDS011;387;48.772;9.186;2022-09-09T17:41:00;3.27;;;0.80;;
809;SDS011;387;48.772;9.186;2022-09-09T17:43:34;1.47;;;0.90;;
809;SDS011;387;48.772;9.186;2022-09-09T17:46:05;2.63;;;0.90;;
809;SDS011;387;48.772;9.186;2022-09-09T17:48:34;3.53;;;1.37;;
809;SDS011;387;48.772;9.186;2022-09-09T17:51:01;1.50;;;1.00;;
809;SDS011;387;48.772;9.186;2022-09-09T17:53:43;3.17;;;1.07;;
809;SDS011;387;48.772;9.186;2022-09-09T17:56:12;2.57;;;1.23;;
809;SDS011;387;48.772;9.186;2022-09-09T17:58:39;3.37;;;1.30;;
809;SDS011;387;48.772;9.186;2022-09-09T18:01:12;2.30;;;1.00;;
809;SDS011;387;48.772;9.186;2022-09-09T18:03:39;2.60;;;1.30;;
809;SDS011;387;48.772;9.186;2022-09-09T18:06:09;3.50;;;1.73;;
809;SDS011;387;48.772;9.186;2022-09-09T18:08:46;2.90;;;1.90;;
809;SDS011;387;48.772;9.186;2022-09-09T18:11:14;2.43;;;1.40;;